Time;durP1;ratioP1;P1;durP2;ratioP2;P2;SDS_P1;SDS_P2;PMS_P1;PMS_P2;Temp;Humidity;BMP_temperature;BMP_pressure;BME280_temperature;BME280_humidity;BME280_pressure;Samples;Min_cycle;Max_cycle;Signal;HPM_P1;HPM_P2
2022/09/02 00:01:03;;;;;;;10.48;9.68;;;;;;;;;;5031053;28;20044;-75
2022/09/02 00:03:33;;;;;;;10.07;9.32;;;;;;;;;;5029660;28;20033;-75
2022/09/02 00:05:59;;;;;;;9.48;8.85;;;;;;;;;;5030270;28;20033;-75
2022/09/02 00:08:25;;;;;;;9.95;9.25;;;;;;;;;;5031636;28;20515;-76
2022/09/02 00:10:51;;;;;;;9.98;9.27;;;;;;;;;;5027187;28;20041;-76
2022/09/02 00:13:18;;;;;;;9.73;9.02;;;;;;;;;;5029361;28;20495;-75
2022/09/02 00:15:46;;;;;;;9.73;9.13;;;;;;;;;;5030255;28;20029;-75
2022/09/02 00:18:12;;;;;;;10.02;9.27;;;;;;;;;;5030156;28;20029;-75
2022/09/02 00:20:44;;;;;;;10.25;9.40;;;;;;;;;;5028440;28;20029;-75
2022/09/02 00:23:10;;;;;;;10.00;9.30;;;;;;;;;;5029308;28;20681;-75
2022/09/02 00:25:38;;;;;;;10.10;9.40;;;;;;;;;;5029194;28;20033;-75
2022/09/02 00:28:05;;;;;;;10.23;9.35;;;;;;;;;;5027114;28;20100;-75
2022/09/02 00:30:32;;;;;;;9.50;8.90;;;;;;;;;;5028053;28;20044;-75
2022/09/02 00:32:58;;;;;;;10.57;9.77;;;;;;;;;;5027262;28;20405;-76
2022/09/02 00:35:23;;;;;;;10.00;9.30;;;;;;;;;;5028364;28;20040;-75
2022/09/02 00:37:49;;;;;;;10.10;9.40;;;;;;;;;;5027417;28;20037;-75
2022/09/02 00:40:15;;;;;;;9.88;9.10;;;;;;;;;;5027672;28;20472;-75
2022/09/02 00:42:40;;;;;;;10.02;9.32;;;;;;;;;;5029962;28;20040;-76
2022/09/02 00:45:08;;;;;;;10.45;9.25;;;;;;;;;;5028299;28;20029;-76
2022/09/02 00:47:35;;;;;;;10.10;9.27;;;;;;;;;;5028423;28;20466;-75
2022/09/02 00:50:05;;;;;;;10.25;9.50;;;;;;;;;;5026462;28;20036;-75
2022/09/02 00:52:33;;;;;;;10.13;9.43;;;;;;;;;;5027039;28;20048;-75
2022/09/02 00:55:09;;;;;;;10.43;9.63;;;;;;;;;;5030294;28;20044;-75
2022/09/02 00:57:41;;;;;;;10.15;9.35;;;;;;;;;;5024560;28;20083;-75
2022/09/02 01:00:15;;;;;;;10.98;10.00;;;;;;;;;;5026295;28;20061;-75
2022/09/02 01:02:41;;;;;;;10.48;9.70;;;;;;;;;;5029264;28;20442;-75
2022/09/02 01:05:11;;;;;;;10.18;9.38;;;;;;;;;;5023977;28;20769;-76
2022/09/02 01:07:38;;;;;;;9.98;9.18;;;;;;;;;;5030288;28;20037;-76
2022/09/02 01:10:11;;;;;;;10.50;9.75;;;;;;;;;;5031416;28;20033;-76
2022/09/02 01:12:37;;;;;;;11.02;9.98;;;;;;;;;;5025005;28;20017;-76
2022/09/02 01:15:05;;;;;;;10.73;9.73;;;;;;;;;;5031089;28;20116;-76
2022/09/02 01:17:33;;;;;;;10.82;9.85;;;;;;;;;;5007327;28;20480;-76
2022/09/02 01:20:05;;;;;;;10.25;9.45;;;;;;;;;;5025131;28;20038;-76
2022/09/02 01:22:32;;;;;;;11.05;10.07;;;;;;;;;;5027178;28;20083;-75
2022/09/02 01:25:04;;;;;;;10.68;9.88;;;;;;;;;;5027935;28;20117;-76
2022/09/02 01:27:30;;;;;;;11.00;10.20;;;;;;;;;;5029525;28;20540;-75
2022/09/02 01:29:58;;;;;;;11.00;10.30;;;;;;;;;;4994970;28;20489;-75
2022/09/02 01:32:26;;;;;;;10.88;10.07;;;;;;;;;;5030213;28;20504;-75
2022/09/02 01:34:52;;;;;;;10.43;9.63;;;;;;;;;;5030933;28;20060;-76
2022/09/02 01:37:19;;;;;;;10.52;9.73;;;;;;;;;;5042228;28;20033;-76
2022/09/02 01:39:45;;;;;;;10.30;9.45;;;;;;;;;;5028271;28;20060;-76
2022/09/02 01:42:12;;;;;;;9.95;9.15;;;;;;;;;;5028398;28;20038;-76
2022/09/02 01:44:42;;;;;;;10.00;9.30;;;;;;;;;;5028064;28;20089;-76
2022/09/02 01:47:11;;;;;;;9.70;9.05;;;;;;;;;;5027082;28;20076;-75
2022/09/02 01:49:36;;;;;;;9.38;8.70;;;;;;;;;;5028717;28;20041;-76
2022/09/02 01:52:03;;;;;;;10.23;9.38;;;;;;;;;;5028279;28;20392;-75
2022/09/02 01:54:30;;;;;;;9.17;8.57;;;;;;;;;;5026701;28;20048;-76
2022/09/02 01:56:56;;;;;;;10.25;9.55;;;;;;;;;;5029713;28;20038;-74
2022/09/02 01:59:22;;;;;;;10.38;9.57;;;;;;;;;;5028528;28;20033;-75
2022/09/02 02:01:48;;;;;;;9.82;9.02;;;;;;;;;;5031299;28;20436;-75
2022/09/02 02:04:15;;;;;;;10.02;9.13;;;;;;;;;;5026842;28;20037;-75
2022/09/02 02:06:46;;;;;;;10.60;9.73;;;;;;;;;;5028790;28;20041;-75
2022/09/02 02:09:12;;;;;;;9.85;9.15;;;;;;;;;;5029456;28;20144;-75
2022/09/02 02:11:39;;;;;;;9.50;8.88;;;;;;;;;;5021761;28;20145;-74
2022/09/02 02:14:05;;;;;;;9.73;8.95;;;;;;;;;;5031478;28;20117;-75
2022/09/02 02:16:31;;;;;;;8.98;8.38;;;;;;;;;;5035792;28;20068;-75
2022/09/02 02:18:57;;;;;;;9.63;8.93;;;;;;;;;;5030116;28;20026;-75
2022/09/02 02:21:23;;;;;;;8.88;8.27;;;;;;;;;;5030552;28;20120;-75
2022/09/02 02:23:49;;;;;;;9.55;8.95;;;;;;;;;;5033259;28;20037;-75
2022/09/02 02:26:15;;;;;;;9.43;8.73;;;;;;;;;;5033474;28;20037;-75
2022/09/02 02:28:42;;;;;;;10.18;9.27;;;;;;;;;;5028810;28;20037;-75
2022/09/02 02:31:08;;;;;;;9.55;8.85;;;;;;;;;;5029368;28;20043;-75
2022/09/02 02:33:37;;;;;;;10.18;9.40;;;;;;;;;;5036004;28;20098;-76
2022/09/02 02:36:06;;;;;;;10.02;9.32;;;;;;;;;;5016766;28;20036;-76
2022/09/02 02:38:33;;;;;;;9.27;8.68;;;;;;;;;;5031190;28;20116;-76
2022/09/02 02:41:00;;;;;;;9.20;8.60;;;;;;;;;;5012742;28;20042;-76
2022/09/02 02:43:27;;;;;;;10.65;9.70;;;;;;;;;;5044831;28;20040;-75
2022/09/02 02:45:53;;;;;;;10.75;9.43;;;;;;;;;;5030138;28;20041;-76
2022/09/02 02:48:20;;;;;;;9.80;9.10;;;;;;;;;;5031270;28;20033;-76
2022/09/02 02:50:46;;;;;;;9.82;8.75;;;;;;;;;;5029664;28;20048;-76
2022/09/02 02:53:12;;;;;;;10.18;9.48;;;;;;;;;;5025710;28;20029;-76
2022/09/02 02:55:38;;;;;;;10.07;9.38;;;;;;;;;;5015568;28;20504;-76
2022/09/02 02:58:05;;;;;;;10.18;9.38;;;;;;;;;;5029307;28;20040;-76
2022/09/02 03:00:32;;;;;;;10.25;9.55;;;;;;;;;;5030050;28;20051;-76
2022/09/02 03:03:03;;;;;;;9.10;8.50;;;;;;;;;;5027430;28;20039;-76
2022/09/02 03:05:30;;;;;;;9.38;8.77;;;;;;;;;;5027309;28;20041;-75
2022/09/02 03:07:56;;;;;;;9.68;8.95;;;;;;;;;;5030914;28;20048;-76
2022/09/02 03:10:23;;;;;;;10.05;9.35;;;;;;;;;;5031160;28;20495;-75
2022/09/02 03:12:49;;;;;;;9.55;8.93;;;;;;;;;;5032593;28;20075;-76
2022/09/02 03:15:19;;;;;;;9.98;9.13;;;;;;;;;;5030627;28;20424;-76
2022/09/02 03:17:48;;;;;;;10.00;9.20;;;;;;;;;;5025796;28;20037;-75
2022/09/02 03:20:16;;;;;;;9.52;8.88;;;;;;;;;;5031747;28;20517;-76
2022/09/02 03:22:49;;;;;;;10.25;9.45;;;;;;;;;;5044148;28;20034;-76
2022/09/02 03:25:19;;;;;;;10.02;9.30;;;;;;;;;;5029873;28;20037;-75
2022/09/02 03:27:46;;;;;;;10.05;9.35;;;;;;;;;;5026501;28;20037;-76
2022/09/02 03:30:33;;;;;;;10.18;9.57;;;;;;;;;;5030095;28;20029;-75
2022/09/02 03:33:01;;;;;;;9.70;9.00;;;;;;;;;;5026497;28;20025;-75
2022/09/02 03:35:28;;;;;;;9.88;9.05;;;;;;;;;;5021875;28;20040;-75
2022/09/02 03:37:54;;;;;;;9.95;9.35;;;;;;;;;;5029910;28;20045;-76
2022/09/02 03:40:24;;;;;;;10.87;9.73;;;;;;;;;;5030282;28;20084;-76
2022/09/02 03:42:53;;;;;;;10.00;8.90;;;;;;;;;;5039928;28;20037;-76
2022/09/02 03:45:20;;;;;;;9.80;9.20;;;;;;;;;;5026831;28;20492;-76
2022/09/02 03:47:52;;;;;;;9.77;9.18;;;;;;;;;;5029197;28;20033;-76
2022/09/02 03:50:24;;;;;;;10.05;9.30;;;;;;;;;;5029048;28;20046;-76
2022/09/02 03:52:50;;;;;;;9.82;9.02;;;;;;;;;;5041087;28;20064;-75
2022/09/02 03:55:19;;;;;;;10.47;9.57;;;;;;;;;;5029664;28;20138;-76
2022/09/02 03:57:45;;;;;;;11.02;10.23;;;;;;;;;;5031897;28;20509;-75
2022/09/02 04:00:15;;;;;;;10.45;9.60;;;;;;;;;;5026009;28;20037;-76
2022/09/02 04:02:44;;;;;;;11.07;10.07;;;;;;;;;;5026037;28;20041;-76
2022/09/02 04:05:11;;;;;;;10.10;9.45;;;;;;;;;;5029309;28;20489;-75
2022/09/02 04:07:39;;;;;;;10.38;9.57;;;;;;;;;;5028801;28;20061;-76
2022/09/02 04:10:07;;;;;;;10.20;9.50;;;;;;;;;;5025016;28;20040;-76
2022/09/02 04:12:35;;;;;;;12.07;10.98;;;;;;;;;;5025939;28;20389;-75
2022/09/02 04:15:04;;;;;;;10.68;9.98;;;;;;;;;;5028121;28;20041;-76
2022/09/02 04:17:30;;;;;;;10.85;10.15;;;;;;;;;;5027394;28;20557;-75
2022/09/02 04:19:55;;;;;;;10.65;9.95;;;;;;;;;;5024018;28;20041;-75
2022/09/02 04:22:21;;;;;;;10.93;10.10;;;;;;;;;;5026735;28;20432;-75
2022/09/02 04:24:48;;;;;;;10.55;9.82;;;;;;;;;;5028551;28;20036;-76
2022/09/02 04:27:15;;;;;;;10.32;9.55;;;;;;;;;;5026495;28;20034;-76
2022/09/02 04:29:43;;;;;;;10.73;9.98;;;;;;;;;;5012284;28;20038;-76
2022/09/02 04:32:09;;;;;;;11.00;10.07;;;;;;;;;;5026795;28;20040;-76
2022/09/02 04:34:36;;;;;;;10.48;9.77;;;;;;;;;;5028652;28;20033;-75
2022/09/02 04:37:02;;;;;;;10.40;9.70;;;;;;;;;;5023186;28;20041;-76
2022/09/02 04:39:28;;;;;;;10.50;9.80;;;;;;;;;;5031407;28;20022;-76
2022/09/02 04:41:55;;;;;;;10.32;9.50;;;;;;;;;;5029573;28;20033;-75
2022/09/02 04:44:24;;;;;;;9.77;9.13;;;;;;;;;;5027149;28;20110;-75
2022/09/02 04:46:51;;;;;;;10.57;9.75;;;;;;;;;;5024989;28;20033;-75
2022/09/02 04:49:19;;;;;;;10.82;9.80;;;;;;;;;;5025862;28;20037;-75
2022/09/02 04:51:46;;;;;;;10.60;9.80;;;;;;;;;;5029508;28;20509;-76
2022/09/02 04:54:12;;;;;;;11.23;10.10;;;;;;;;;;5028245;28;20038;-75
2022/09/02 04:56:41;;;;;;;10.85;10.05;;;;;;;;;;5022614;28;20040;-75
2022/09/02 04:59:08;;;;;;;11.20;10.30;;;;;;;;;;5029348;28;20033;-75
2022/09/02 05:01:36;;;;;;;10.90;10.00;;;;;;;;;;5029505;28;20037;-75
2022/09/02 05:04:10;;;;;;;11.23;10.43;;;;;;;;;;5026339;28;20786;-75
2022/09/02 05:06:45;;;;;;;10.60;9.85;;;;;;;;;;5025442;28;20108;-75
2022/09/02 05:09:17;;;;;;;11.18;10.20;;;;;;;;;;5028518;28;20044;-75
2022/09/02 05:11:47;;;;;;;11.48;10.18;;;;;;;;;;5024780;28;20044;-76
2022/09/02 05:14:15;;;;;;;10.98;10.18;;;;;;;;;;5040877;28;20033;-76
2022/09/02 05:16:41;;;;;;;10.70;9.93;;;;;;;;;;5026818;28;20044;-75
2022/09/02 05:19:12;;;;;;;11.27;10.48;;;;;;;;;;5026118;28;20492;-75
2022/09/02 05:21:43;;;;;;;11.10;10.20;;;;;;;;;;5024962;28;20091;-75
2022/09/02 05:24:13;;;;;;;11.05;10.20;;;;;;;;;;5026129;28;20033;-75
2022/09/02 05:26:41;;;;;;;10.80;10.00;;;;;;;;;;5026401;28;20035;-76
2022/09/02 05:29:08;;;;;;;10.98;10.27;;;;;;;;;;5026995;28;20048;-75
2022/09/02 05:31:40;;;;;;;10.85;10.05;;;;;;;;;;5026173;28;20042;-77
2022/09/02 05:34:07;;;;;;;10.68;9.88;;;;;;;;;;5028399;28;20579;-75
2022/09/02 05:36:33;;;;;;;10.13;9.43;;;;;;;;;;5009208;28;20064;-75
2022/09/02 05:39:00;;;;;;;9.93;9.20;;;;;;;;;;5029973;28;20114;-75
2022/09/02 05:41:27;;;;;;;10.52;9.80;;;;;;;;;;5042484;28;20036;-75
2022/09/02 05:44:00;;;;;;;10.18;9.45;;;;;;;;;;5028851;28;20041;-76
2022/09/02 05:46:26;;;;;;;10.48;9.68;;;;;;;;;;5026502;28;20096;-76
2022/09/02 05:52:03;;;;;;;10.75;9.95;;;;;;;;;;5000364;28;20307;-76
2022/09/02 05:54:37;;;;;;;10.63;9.82;;;;;;;;;;4986969;28;20050;-76
2022/09/02 05:57:11;;;;;;;10.55;9.82;;;;;;;;;;5000845;28;20163;-75
2022/09/02 05:59:41;;;;;;;10.35;9.48;;;;;;;;;;4986673;28;20417;-76
2022/09/02 06:02:11;;;;;;;10.70;10.00;;;;;;;;;;4999737;28;20058;-75
2022/09/02 06:04:39;;;;;;;9.90;9.30;;;;;;;;;;4984637;28;20038;-76
2022/09/02 06:07:06;;;;;;;10.65;9.65;;;;;;;;;;4999303;28;20129;-75
2022/09/02 06:09:33;;;;;;;10.18;9.38;;;;;;;;;;4992677;28;20045;-76
2022/09/02 06:11:59;;;;;;;10.50;9.80;;;;;;;;;;4990530;28;20641;-75
2022/09/02 06:14:29;;;;;;;10.30;9.50;;;;;;;;;;4993294;28;20512;-76
2022/09/02 06:16:57;;;;;;;10.55;9.52;;;;;;;;;;4991871;28;20140;-74
2022/09/02 06:19:34;;;;;;;10.40;9.55;;;;;;;;;;4992463;28;20617;-74
2022/09/02 06:22:02;;;;;;;10.32;9.38;;;;;;;;;;5008550;28;20075;-74
2022/09/02 06:24:32;;;;;;;10.65;9.85;;;;;;;;;;5008940;28;20041;-74
2022/09/02 06:27:06;;;;;;;10.65;9.60;;;;;;;;;;5026978;28;20041;-73
2022/09/02 06:29:32;;;;;;;11.50;10.60;;;;;;;;;;5031982;28;20499;-75
2022/09/02 06:31:58;;;;;;;9.80;9.05;;;;;;;;;;5030446;28;20037;-75
2022/09/02 06:34:26;;;;;;;10.65;9.68;;;;;;;;;;5031017;28;20757;-74
2022/09/02 06:36:53;;;;;;;11.15;9.80;;;;;;;;;;5028246;28;20103;-74
2022/09/02 06:39:22;;;;;;;11.73;9.93;;;;;;;;;;5034481;28;20589;-74
2022/09/02 06:41:48;;;;;;;10.70;9.85;;;;;;;;;;5033202;28;20034;-75
2022/09/02 06:44:17;;;;;;;10.13;9.20;;;;;;;;;;5031871;28;20040;-73
2022/09/02 06:46:46;;;;;;;10.85;9.85;;;;;;;;;;5035487;28;20033;-74
2022/09/02 06:49:15;;;;;;;;;;;;;;;;;;5037163;28;20037;-75
2022/09/02 06:51:44;;;;;;;10.60;9.80;;;;;;;;;;5036135;28;19913;-74
2022/09/02 06:54:12;;;;;;;;;;;;;;;;;;5032358;28;20044;-73
2022/09/02 06:56:38;;;;;;;9.85;9.25;;;;;;;;;;5034092;28;20273;-74
2022/09/02 06:59:06;;;;;;;9.57;8.88;;;;;;;;;;5032079;28;20052;-74
2022/09/02 07:01:44;;;;;;;10.02;9.23;;;;;;;;;;5022039;28;20038;-74
2022/09/02 07:06:58;;;;;;;11.43;9.80;;;;;;;;;;5030526;28;20041;-74
2022/09/02 07:09:29;;;;;;;10.13;9.43;;;;;;;;;;5028896;28;20033;-74
2022/09/02 07:12:00;;;;;;;10.65;9.70;;;;;;;;;;5029430;28;20030;-74
2022/09/02 07:14:27;;;;;;;10.30;9.50;;;;;;;;;;5030842;28;20041;-74
2022/09/02 07:16:56;;;;;;;10.70;9.65;;;;;;;;;;5032376;28;20033;-75
2022/09/02 07:19:26;;;;;;;10.50;9.57;;;;;;;;;;5021956;28;20037;-75
2022/09/02 07:21:52;;;;;;;10.10;9.30;;;;;;;;;;5029347;28;20404;-75
2022/09/02 07:24:21;;;;;;;9.95;9.30;;;;;;;;;;5027910;28;20038;-75
2022/09/02 07:26:47;;;;;;;10.40;9.38;;;;;;;;;;5030174;28;20037;-74
2022/09/02 07:29:15;;;;;;;9.93;9.30;;;;;;;;;;5011850;28;20511;-75
2022/09/02 07:31:45;;;;;;;9.95;9.32;;;;;;;;;;5029397;28;20420;-76
2022/09/02 07:34:14;;;;;;;10.80;9.13;;;;;;;;;;5027158;28;20343;-73
2022/09/02 07:36:41;;;;;;;10.40;9.43;;;;;;;;;;5029613;28;20572;-74
2022/09/02 07:39:10;;;;;;;9.98;9.32;;;;;;;;;;5027238;28;20052;-74
2022/09/02 07:41:37;;;;;;;9.93;9.23;;;;;;;;;;5024934;28;20512;-74
2022/09/02 07:44:06;;;;;;;8.60;8.10;;;;;;;;;;5026562;28;20041;-74
2022/09/02 07:46:32;;;;;;;9.50;8.90;;;;;;;;;;5027949;28;20556;-74
2022/09/02 07:49:00;;;;;;;10.10;9.30;;;;;;;;;;5029110;28;20041;-73
2022/09/02 07:51:25;;;;;;;9.20;8.60;;;;;;;;;;5026579;28;20073;-73
2022/09/02 07:53:52;;;;;;;9.43;8.82;;;;;;;;;;5030383;28;20111;-73
2022/09/02 07:56:19;;;;;;;9.63;8.93;;;;;;;;;;5029828;28;20060;-74
2022/09/02 07:58:46;;;;;;;9.35;8.65;;;;;;;;;;5028132;28;20124;-74
2022/09/02 08:01:13;;;;;;;9.82;9.02;;;;;;;;;;5027682;28;20055;-73
2022/09/02 08:03:43;;;;;;;9.73;8.88;;;;;;;;;;5030631;28;20071;-73
2022/09/02 08:06:10;;;;;;;10.05;9.18;;;;;;;;;;5032609;28;20045;-72
2022/09/02 08:08:36;;;;;;;9.55;8.98;;;;;;;;;;5027230;28;20037;-73
2022/09/02 08:11:03;;;;;;;9.52;8.75;;;;;;;;;;5031768;28;20033;-74
2022/09/02 08:13:29;;;;;;;9.00;8.40;;;;;;;;;;5030824;28;20026;-73
2022/09/02 08:15:54;;;;;;;9.77;9.02;;;;;;;;;;5030151;28;20401;-73
2022/09/02 08:18:20;;;;;;;9.48;8.77;;;;;;;;;;5025607;28;20040;-73
2022/09/02 08:20:46;;;;;;;9.57;8.77;;;;;;;;;;5032319;28;20128;-73
2022/09/02 08:23:13;;;;;;;9.95;9.25;;;;;;;;;;5029826;28;20126;-73
2022/09/02 08:25:39;;;;;;;9.45;8.75;;;;;;;;;;5027843;28;20033;-74
2022/09/02 08:28:05;;;;;;;9.50;8.85;;;;;;;;;;5031269;28;20040;-73
2022/09/02 08:30:32;;;;;;;9.95;9.15;;;;;;;;;;5030771;28;20033;-74
2022/09/02 08:32:58;;;;;;;9.60;9.00;;;;;;;;;;5028947;28;20033;-73
2022/09/02 08:35:23;;;;;;;10.00;9.25;;;;;;;;;;5029370;28;20689;-73
2022/09/02 08:37:49;;;;;;;10.23;9.27;;;;;;;;;;5032865;28;20041;-74
2022/09/02 08:40:18;;;;;;;9.60;9.00;;;;;;;;;;5030298;28;20037;-74
2022/09/02 08:42:52;;;;;;;9.35;8.60;;;;;;;;;;5025286;28;20038;-73
2022/09/02 08:45:52;;;;;;;9.52;8.80;;;;;;;;;;5030521;28;20100;-73
2022/09/02 08:48:23;;;;;;;8.93;7.97;;;;;;;;;;4996602;28;20045;-74
2022/09/02 08:50:51;;;;;;;9.23;8.70;;;;;;;;;;5003122;28;20120;-74
2022/09/02 08:53:36;;;;;;;8.75;8.05;;;;;;;;;;5000199;28;20041;-73
2022/09/02 08:56:05;;;;;;;9.10;8.50;;;;;;;;;;5011427;28;20504;-74
2022/09/02 08:58:40;;;;;;;8.30;7.80;;;;;;;;;;5011019;28;20038;-73
2022/09/02 09:01:24;;;;;;;8.88;8.23;;;;;;;;;;5010982;28;20045;-72
2022/09/02 09:04:17;;;;;;;8.55;8.05;;;;;;;;;;5009905;28;20692;-72
2022/09/02 09:07:00;;;;;;;8.75;8.02;;;;;;;;;;5013221;28;20037;-74
2022/09/02 09:09:50;;;;;;;8.30;7.80;;;;;;;;;;5008469;28;20083;-73
2022/09/02 09:12:37;;;;;;;8.45;7.85;;;;;;;;;;5007964;28;20418;-73
2022/09/02 09:15:46;;;;;;;8.75;8.10;;;;;;;;;;5011726;28;20611;-72
2022/09/02 09:18:16;;;;;;;9.15;8.57;;;;;;;;;;5014301;28;20053;-74
2022/09/02 09:20:43;;;;;;;8.73;8.00;;;;;;;;;;5011396;28;20135;-74
2022/09/02 09:23:28;;;;;;;8.57;8.07;;;;;;;;;;5019201;28;20061;-73
2022/09/02 09:26:12;;;;;;;9.38;8.77;;;;;;;;;;5029426;28;20055;-74
2022/09/02 09:28:46;;;;;;;8.82;8.23;;;;;;;;;;5027113;28;20037;-73
2022/09/02 09:31:16;;;;;;;9.35;8.63;;;;;;;;;;5031798;28;20088;-73
2022/09/02 09:34:06;;;;;;;8.75;8.15;;;;;;;;;;5029889;28;20030;-73
2022/09/02 09:36:41;;;;;;;9.05;8.25;;;;;;;;;;5025745;28;20557;-73
2022/09/02 09:39:17;;;;;;;9.52;8.73;;;;;;;;;;5026444;28;20052;-72
2022/09/02 09:41:44;;;;;;;8.90;8.30;;;;;;;;;;5026451;28;20077;-72
2022/09/02 09:44:10;;;;;;;9.02;8.38;;;;;;;;;;5032358;28;20079;-73
2022/09/02 09:46:35;;;;;;;8.77;8.05;;;;;;;;;;5031977;28;20086;-73
2022/09/02 09:49:01;;;;;;;7.50;7.07;;;;;;;;;;5035468;28;20056;-73
2022/09/02 09:51:27;;;;;;;7.50;6.88;;;;;;;;;;5031134;28;20469;-73
2022/09/02 09:54:14;;;;;;;8.80;8.07;;;;;;;;;;5032467;28;20515;-73
2022/09/02 09:56:40;;;;;;;8.57;7.97;;;;;;;;;;5030075;28;20033;-73
2022/09/02 09:59:07;;;;;;;8.27;7.50;;;;;;;;;;5033190;28;20034;-73
2022/09/02 10:01:33;;;;;;;8.65;7.95;;;;;;;;;;5030175;28;20040;-73
2022/09/02 10:04:24;;;;;;;7.85;7.28;;;;;;;;;;5034592;28;20146;-73
2022/09/02 10:06:49;;;;;;;8.27;7.57;;;;;;;;;;5035142;28;20032;-73
2022/09/02 10:09:18;;;;;;;8.05;7.60;;;;;;;;;;5033328;28;20410;-73
2022/09/02 10:12:00;;;;;;;;;;;;;;;;;;5033572;28;20096;-73
2022/09/02 10:14:53;;;;;;;7.88;7.38;;;;;;;;;;5036244;28;19913;-73
2022/09/02 10:18:04;;;;;;;8.00;7.53;;;;;;;;;;5035003;28;20037;-73
2022/09/02 10:20:41;;;;;;;9.95;7.80;;;;;;;;;;5029214;28;20037;-74
2022/09/02 10:23:20;;;;;;;8.30;7.70;;;;;;;;;;5037355;28;20112;-72
2022/09/02 10:25:54;;;;;;;;;;;;;;;;;;5037845;28;20747;-74
2022/09/02 10:28:26;;;;;;;8.30;7.70;;;;;;;;;;5032397;28;19921;-74
2022/09/02 10:31:24;;;;;;;7.80;7.30;;;;;;;;;;5037472;28;20064;-73
2022/09/02 10:33:56;;;;;;;;;;;;;;;;;;5034326;28;20112;-72
2022/09/02 10:37:04;;;;;;;8.20;7.70;;;;;;;;;;5035539;28;20365;-73
2022/09/02 10:39:58;;;;;;;7.85;7.35;;;;;;;;;;5027385;28;20045;-71
2022/09/02 10:42:50;;;;;;;7.55;7.15;;;;;;;;;;5034446;28;20044;-73
2022/09/02 10:45:42;;;;;;;11.57;8.02;;;;;;;;;;5037218;28;20048;-73
2022/09/02 10:48:26;;;;;;;;;;;;;;;;;;5034213;28;20053;-72
2022/09/02 10:50:54;;;;;;;8.25;7.68;;;;;;;;;;5032090;28;19913;-74
2022/09/02 10:54:02;;;;;;;8.55;7.85;;;;;;;;;;5033827;28;20048;-72
2022/09/02 10:56:37;;;;;;;8.18;7.70;;;;;;;;;;5006168;28;20033;-73
2022/09/02 10:59:25;;;;;;;8.20;7.60;;;;;;;;;;5010052;28;20053;-73
2022/09/02 11:01:55;;;;;;;8.68;8.10;;;;;;;;;;5004941;28;20072;-73
2022/09/02 11:04:48;;;;;;;9.32;8.52;;;;;;;;;;5008783;28;20075;-73
2022/09/02 11:07:18;;;;;;;8.65;8.15;;;;;;;;;;5010704;28;20084;-73
2022/09/02 11:09:53;;;;;;;8.95;8.43;;;;;;;;;;5006707;28;20041;-73
2022/09/02 11:12:31;;;;;;;8.90;8.30;;;;;;;;;;5007994;28;20733;-73
2022/09/02 11:15:03;;;;;;;8.88;8.25;;;;;;;;;;5013445;28;20046;-73
2022/09/02 11:17:48;;;;;;;8.93;8.32;;;;;;;;;;5005253;28;20513;-73
2022/09/02 11:20:34;;;;;;;9.68;9.07;;;;;;;;;;5007821;28;20045;-73
2022/09/02 11:23:21;;;;;;;8.73;8.23;;;;;;;;;;5005054;28;20076;-72
2022/09/02 11:26:06;;;;;;;8.73;8.23;;;;;;;;;;5009881;28;20049;-72
2022/09/02 11:28:53;;;;;;;8.88;8.27;;;;;;;;;;5007838;28;20046;-73
2022/09/02 11:31:27;;;;;;;8.98;8.38;;;;;;;;;;5015322;28;20053;-71
2022/09/02 11:34:02;;;;;;;8.70;8.20;;;;;;;;;;5030677;28;20386;-73
2022/09/02 11:36:28;;;;;;;9.05;8.38;;;;;;;;;;5031710;28;20037;-72
2022/09/02 11:39:06;;;;;;;9.20;8.50;;;;;;;;;;5028848;28;20044;-73
2022/09/02 11:41:47;;;;;;;8.98;8.18;;;;;;;;;;5028860;28;20041;-73
2022/09/02 11:44:15;;;;;;;9.30;8.60;;;;;;;;;;5025684;28;20599;-71
2022/09/02 11:46:53;;;;;;;9.20;8.60;;;;;;;;;;5027299;28;20072;-72
2022/09/02 11:49:41;;;;;;;8.85;8.32;;;;;;;;;;5029070;28;20029;-73
2022/09/02 11:52:18;;;;;;;8.88;8.27;;;;;;;;;;5026171;28;20042;-72
2022/09/02 11:54:48;;;;;;;9.93;9.10;;;;;;;;;;5028826;28;20033;-72
2022/09/02 11:57:24;;;;;;;9.40;8.70;;;;;;;;;;5026916;28;20033;-73
2022/09/02 11:59:49;;;;;;;9.93;9.23;;;;;;;;;;5026723;28;20037;-73
2022/09/02 12:02:46;;;;;;;9.60;9.00;;;;;;;;;;5028295;28;20037;-73
2022/09/02 12:05:30;;;;;;;9.73;9.13;;;;;;;;;;5027441;28;20492;-71
2022/09/02 12:08:03;;;;;;;9.80;9.10;;;;;;;;;;5030027;28;20041;-72
2022/09/02 12:10:42;;;;;;;9.40;8.80;;;;;;;;;;5029513;28;20637;-72
2022/09/02 12:13:39;;;;;;;9.85;9.00;;;;;;;;;;5028498;28;20037;-73
2022/09/02 12:16:11;;;;;;;8.90;8.18;;;;;;;;;;5032715;28;20025;-73
2022/09/02 12:18:37;;;;;;;9.63;8.90;;;;;;;;;;5025888;28;20033;-72
2022/09/02 12:21:06;;;;;;;9.45;8.93;;;;;;;;;;5029446;28;20117;-73
2022/09/02 12:23:47;;;;;;;8.50;8.00;;;;;;;;;;5027803;28;20060;-72
2022/09/02 12:26:14;;;;;;;9.80;9.20;;;;;;;;;;5029120;28;20045;-72
2022/09/02 12:28:41;;;;;;;9.40;8.88;;;;;;;;;;5032309;28;20033;-72
2022/09/02 12:31:11;;;;;;;9.45;8.85;;;;;;;;;;5031983;28;20136;-72
2022/09/02 12:33:40;;;;;;;9.13;8.63;;;;;;;;;;5033484;28;20029;-72
2022/09/02 12:36:07;;;;;;;9.63;9.02;;;;;;;;;;5033436;28;20044;-73
2022/09/02 12:38:38;;;;;;;10.02;9.30;;;;;;;;;;5038229;28;20048;-73
2022/09/02 12:41:03;;;;;;;9.70;9.00;;;;;;;;;;5027989;28;20428;-72
2022/09/02 12:43:46;;;;;;;9.70;9.07;;;;;;;;;;5029504;28;20476;-72
2022/09/02 12:46:18;;;;;;;9.43;8.82;;;;;;;;;;5029100;28;20029;-73
2022/09/02 12:49:10;;;;;;;10.20;9.18;;;;;;;;;;5028029;28;20076;-73
2022/09/02 12:52:00;;;;;;;9.73;9.15;;;;;;;;;;5025839;28;20036;-72
2022/09/02 12:54:48;;;;;;;10.35;9.65;;;;;;;;;;5031543;28;20128;-73
2022/09/02 12:57:15;;;;;;;9.43;8.77;;;;;;;;;;5032375;28;20042;-72
2022/09/02 12:59:42;;;;;;;9.70;9.10;;;;;;;;;;5033326;28;20304;-72
2022/09/02 13:02:26;;;;;;;9.07;8.50;;;;;;;;;;5033335;28;20091;-73
2022/09/02 13:05:14;;;;;;;9.60;9.00;;;;;;;;;;5031325;28;20037;-72
2022/09/02 13:08:08;;;;;;;9.35;8.73;;;;;;;;;;5030350;28;20056;-72
2022/09/02 13:11:04;;;;;;;9.07;8.48;;;;;;;;;;5028407;28;20129;-72
2022/09/02 13:13:48;;;;;;;9.48;8.88;;;;;;;;;;5033191;28;20112;-72
2022/09/02 13:16:40;;;;;;;9.05;8.38;;;;;;;;;;5028549;28;20480;-73
2022/09/02 13:19:29;;;;;;;9.27;8.05;;;;;;;;;;5029722;28;20045;-73
2022/09/02 13:22:07;;;;;;;9.38;8.55;;;;;;;;;;5032760;28;20083;-73
2022/09/02 13:24:42;;;;;;;9.15;8.55;;;;;;;;;;5029086;28;20052;-71
2022/09/02 13:27:36;;;;;;;9.63;8.82;;;;;;;;;;5028419;28;20492;-73
2022/09/02 13:30:19;;;;;;;9.32;8.63;;;;;;;;;;5009682;28;20523;-72
2022/09/02 13:32:54;;;;;;;9.10;8.23;;;;;;;;;;5032484;28;20044;-72
2022/09/02 13:35:24;;;;;;;10.38;8.65;;;;;;;;;;5030786;28;20749;-71
2022/09/02 13:37:58;;;;;;;9.60;8.80;;;;;;;;;;5031187;28;20060;-72
2022/09/02 13:40:37;;;;;;;9.38;8.68;;;;;;;;;;5030062;28;20574;-72
2022/09/02 13:43:25;;;;;;;9.90;9.10;;;;;;;;;;5031031;28;20041;-72
2022/09/02 13:45:53;;;;;;;10.77;9.82;;;;;;;;;;5032911;28;20087;-72
2022/09/02 13:48:30;;;;;;;10.45;9.43;;;;;;;;;;5030339;28;20040;-73
2022/09/02 13:51:00;;;;;;;10.68;8.77;;;;;;;;;;5031888;28;20032;-72
2022/09/02 13:53:29;;;;;;;8.93;8.13;;;;;;;;;;5029806;28;20021;-72
2022/09/02 13:55:56;;;;;;;;;;;;;;;;;;5029842;28;20133;-73
2022/09/02 13:58:27;;;;;;;9.75;8.95;;;;;;;;;;5026003;28;19925;-73
2022/09/02 14:00:55;;;;;;;10.35;9.50;;;;;;;;;;5028863;28;20492;-72
2022/09/02 14:03:24;;;;;;;9.95;9.32;;;;;;;;;;5029985;28;20034;-73
2022/09/02 14:05:53;;;;;;;9.30;8.65;;;;;;;;;;5030915;28;20029;-73
2022/09/02 14:08:22;;;;;;;9.63;8.82;;;;;;;;;;5032843;28;20037;-72
2022/09/02 14:10:51;;;;;;;9.80;9.00;;;;;;;;;;5030590;28;20595;-72
2022/09/02 14:13:17;;;;;;;9.35;8.70;;;;;;;;;;5031228;28;20040;-71
2022/09/02 14:15:43;;;;;;;9.20;8.60;;;;;;;;;;5030614;28;20775;-71
2022/09/02 14:18:19;;;;;;;9.02;8.48;;;;;;;;;;5028389;28;20101;-72
2022/09/02 14:20:57;;;;;;;9.70;8.70;;;;;;;;;;5033588;28;20084;-72
2022/09/02 14:23:24;;;;;;;9.27;8.57;;;;;;;;;;5033027;28;20025;-72
2022/09/02 14:25:54;;;;;;;9.02;8.43;;;;;;;;;;5036306;28;20292;-72
2022/09/02 14:28:23;;;;;;;8.88;8.23;;;;;;;;;;5030580;28;20080;-72
2022/09/02 14:31:07;;;;;;;9.18;8.50;;;;;;;;;;5032296;28;20099;-72
2022/09/02 14:33:44;;;;;;;9.50;8.85;;;;;;;;;;5033593;28;20075;-73
2022/09/02 14:36:22;;;;;;;9.50;8.90;;;;;;;;;;5034703;28;20423;-72
2022/09/02 14:38:56;;;;;;;9.45;8.70;;;;;;;;;;5033811;28;20041;-72
2022/09/02 14:41:23;;;;;;;9.70;9.10;;;;;;;;;;5038648;28;20087;-72
2022/09/02 14:43:56;;;;;;;9.70;9.00;;;;;;;;;;5036693;28;20033;-73
2022/09/02 14:46:31;;;;;;;9.77;8.98;;;;;;;;;;5033196;28;20112;-72
2022/09/02 14:49:06;;;;;;;9.38;8.68;;;;;;;;;;5039216;28;20044;-71
2022/09/02 14:51:42;;;;;;;9.40;8.90;;;;;;;;;;5035818;28;20041;-74
2022/09/02 14:54:08;;;;;;;9.88;9.15;;;;;;;;;;5030584;28;20176;-73
2022/09/02 14:56:48;;;;;;;9.30;8.70;;;;;;;;;;5033614;28;20038;-74
2022/09/02 14:59:14;;;;;;;9.82;9.13;;;;;;;;;;5032416;28;20052;-74
2022/09/02 15:01:45;;;;;;;9.88;9.07;;;;;;;;;;5035358;28;20041;-73
2022/09/02 15:04:13;;;;;;;10.20;9.25;;;;;;;;;;5031663;28;20646;-72
2022/09/02 15:06:39;;;;;;;9.48;8.88;;;;;;;;;;5036771;28;20075;-74
2022/09/02 15:09:04;;;;;;;9.15;8.65;;;;;;;;;;5034014;28;20041;-72
2022/09/02 15:11:30;;;;;;;8.77;8.27;;;;;;;;;;5036309;28;20029;-72